sensor_id;sensor_type;location;lat;lon;timestamp;P1;durP1;ratioP1;P2;durP2;ratioP2
12663;SDS011;6396;58.490;15.528;2023-03-20T00:01:04;13.03;;;9.80;;
12663;SDS011;6396;58.490;15.528;2023-03-20T00:03:37;11.23;;;9.57;;
12663;SDS011;6396;58.490;15.528;2023-03-20T00:06:04;15.17;;;10.30;;
12663;SDS011;6396;58.490;15.528;2023-03-20T00:08:37;14.67;;;10.30;;
12663;SDS011;6396;58.490;15.528;2023-03-20T00:11:07;12.77;;;9.90;;
12663;SDS011;6396;58.490;15.528;2023-03-20T00:13:47;15.20;;;9.73;;
12663;SDS011;6396;58.490;15.528;2023-03-20T00:16:14;17.33;;;10.17;;
12663;SDS011;6396;58.490;15.528;2023-03-20T00:18:41;14.53;;;10.33;;
12663;SDS011;6396;58.490;15.528;2023-03-20T00:21:09;16.47;;;11.37;;
12663;SDS011;6396;58.490;15.528;2023-03-20T00:23:42;16.27;;;11.47;;
12663;SDS011;6396;58.490;15.528;2023-03-20T00:36:15;16.37;;;10.53;;
12663;SDS011;6396;58.490;15.528;2023-03-20T00:38:45;17.17;;;11.73;;
12663;SDS011;6396;58.490;15.528;2023-03-20T00:41:22;15.13;;;11.23;;
12663;SDS011;6396;58.490;15.528;2023-03-20T00:43:51;17.83;;;11.50;;
12663;SDS011;6396;58.490;15.528;2023-03-20T00:46:20;19.03;;;11.37;;
12663;SDS011;6396;58.490;15.528;2023-03-20T00:48:47;15.80;;;11.40;;
12663;SDS011;6396;58.490;15.528;2023-03-20T00:51:17;16.23;;;10.40;;
12663;SDS011;6396;58.490;15.528;2023-03-20T00:53:44;15.63;;;10.63;;
12663;SDS011;6396;58.490;15.528;2023-03-20T00:56:18;16.23;;;10.93;;
12663;SDS011;6396;58.490;15.528;2023-03-20T00:58:55;15.67;;;10.93;;
12663;SDS011;6396;58.490;15.528;2023-03-20T01:01:23;15.43;;;10.60;;
12663;SDS011;6396;58.490;15.528;2023-03-20T01:03:50;12.93;;;9.60;;
12663;SDS011;6396;58.490;15.528;2023-03-20T01:06:18;15.17;;;10.30;;
12663;SDS011;6396;58.490;15.528;2023-03-20T01:08:45;15.20;;;10.23;;
12663;SDS011;6396;58.490;15.528;2023-03-20T01:11:13;15.43;;;9.50;;
12663;SDS011;6396;58.490;15.528;2023-03-20T01:13:42;13.47;;;9.80;;
12663;SDS011;6396;58.490;15.528;2023-03-20T01:16:13;13.93;;;10.40;;
12663;SDS011;6396;58.490;15.528;2023-03-20T01:18:45;16.73;;;11.30;;
12663;SDS011;6396;58.490;15.528;2023-03-20T01:21:12;15.97;;;11.03;;
12663;SDS011;6396;58.490;15.528;2023-03-20T01:23:40;16.80;;;11.27;;
12663;SDS011;6396;58.490;15.528;2023-03-20T01:26:11;18.63;;;11.73;;
12663;SDS011;6396;58.490;15.528;2023-03-20T01:28:47;17.17;;;11.00;;
12663;SDS011;6396;58.490;15.528;2023-03-20T01:31:15;18.63;;;11.83;;
12663;SDS011;6396;58.490;15.528;2023-03-20T01:33:43;15.60;;;11.20;;
12663;SDS011;6396;58.490;15.528;2023-03-20T01:36:11;15.97;;;11.23;;
12663;SDS011;6396;58.490;15.528;2023-03-20T01:38:40;16.67;;;10.83;;
12663;SDS011;6396;58.490;15.528;2023-03-20T01:41:09;16.47;;;12.20;;
12663;SDS011;6396;58.490;15.528;2023-03-20T01:43:39;16.90;;;11.60;;
12663;SDS011;6396;58.490;15.528;2023-03-20T01:46:13;22.07;;;13.13;;
12663;SDS011;6396;58.490;15.528;2023-03-20T01:50:13;18.60;;;12.37;;
12663;SDS011;6396;58.490;15.528;2023-03-20T01:52:08;20.57;;;12.37;;
12663;SDS011;6396;58.490;15.528;2023-03-20T01:54:37;22.70;;;12.50;;
12663;SDS011;6396;58.490;15.528;2023-03-20T01:57:06;18.40;;;11.97;;
12663;SDS011;6396;58.490;15.528;2023-03-20T01:59:39;25.27;;;14.30;;
12663;SDS011;6396;58.490;15.528;2023-03-20T02:02:08;20.40;;;13.00;;
12663;SDS011;6396;58.490;15.528;2023-03-20T02:04:40;19.00;;;12.70;;
12663;SDS011;6396;58.490;15.528;2023-03-20T02:07:09;17.80;;;13.43;;
12663;SDS011;6396;58.490;15.528;2023-03-20T02:09:40;19.73;;;13.17;;
12663;SDS011;6396;58.490;15.528;2023-03-20T02:12:07;22.47;;;14.83;;
12663;SDS011;6396;58.490;15.528;2023-03-20T02:14:34;24.30;;;15.03;;
12663;SDS011;6396;58.490;15.528;2023-03-20T02:17:02;20.83;;;14.03;;
12663;SDS011;6396;58.490;15.528;2023-03-20T02:19:34;21.13;;;14.20;;
12663;SDS011;6396;58.490;15.528;2023-03-20T02:31:21;22.77;;;14.87;;
12663;SDS011;6396;58.490;15.528;2023-03-20T02:40:16;22.63;;;14.63;;
12663;SDS011;6396;58.490;15.528;2023-03-20T02:42:52;26.23;;;15.77;;
12663;SDS011;6396;58.490;15.528;2023-03-20T02:45:26;22.23;;;14.50;;
12663;SDS011;6396;58.490;15.528;2023-03-20T02:47:59;21.77;;;14.30;;
12663;SDS011;6396;58.490;15.528;2023-03-20T02:50:37;23.20;;;14.63;;
12663;SDS011;6396;58.490;15.528;2023-03-20T02:53:13;22.73;;;14.37;;
12663;SDS011;6396;58.490;15.528;2023-03-20T02:55:51;23.47;;;14.70;;
12663;SDS011;6396;58.490;15.528;2023-03-20T02:58:25;24.77;;;15.50;;
12663;SDS011;6396;58.490;15.528;2023-03-20T03:00:56;22.77;;;14.27;;
12663;SDS011;6396;58.490;15.528;2023-03-20T03:03:30;25.43;;;15.53;;
12663;SDS011;6396;58.490;15.528;2023-03-20T03:06:03;24.83;;;15.67;;
12663;SDS011;6396;58.490;15.528;2023-03-20T03:08:35;24.17;;;14.23;;
12663;SDS011;6396;58.490;15.528;2023-03-20T03:11:07;24.23;;;15.50;;
12663;SDS011;6396;58.490;15.528;2023-03-20T03:13:35;26.40;;;16.37;;
12663;SDS011;6396;58.490;15.528;2023-03-20T03:16:06;25.30;;;15.80;;
12663;SDS011;6396;58.490;15.528;2023-03-20T03:18:36;25.00;;;15.43;;
12663;SDS011;6396;58.490;15.528;2023-03-20T03:21:06;26.77;;;17.60;;
12663;SDS011;6396;58.490;15.528;2023-03-20T03:23:38;28.00;;;16.70;;
12663;SDS011;6396;58.490;15.528;2023-03-20T03:26:10;27.60;;;16.13;;
12663;SDS011;6396;58.490;15.528;2023-03-20T03:28:41;28.73;;;17.90;;
12663;SDS011;6396;58.490;15.528;2023-03-20T03:31:12;25.93;;;16.87;;
12663;SDS011;6396;58.490;15.528;2023-03-20T03:33:43;24.23;;;15.37;;
12663;SDS011;6396;58.490;15.528;2023-03-20T03:36:12;25.43;;;16.43;;
12663;SDS011;6396;58.490;15.528;2023-03-20T03:38:48;27.50;;;16.67;;
12663;SDS011;6396;58.490;15.528;2023-03-20T03:41:25;26.70;;;17.23;;
12663;SDS011;6396;58.490;15.528;2023-03-20T03:43:59;27.03;;;17.37;;
12663;SDS011;6396;58.490;15.528;2023-03-20T03:46:35;28.23;;;17.27;;
12663;SDS011;6396;58.490;15.528;2023-03-20T03:49:06;28.50;;;17.33;;
12663;SDS011;6396;58.490;15.528;2023-03-20T03:51:37;28.90;;;17.53;;
12663;SDS011;6396;58.490;15.528;2023-03-20T03:54:08;27.57;;;17.17;;
12663;SDS011;6396;58.490;15.528;2023-03-20T03:56:38;28.90;;;16.90;;
12663;SDS011;6396;58.490;15.528;2023-03-20T03:59:09;29.37;;;17.10;;
12663;SDS011;6396;58.490;15.528;2023-03-20T04:01:51;29.97;;;18.20;;
12663;SDS011;6396;58.490;15.528;2023-03-20T04:04:19;30.13;;;18.40;;
12663;SDS011;6396;58.490;15.528;2023-03-20T04:06:49;26.57;;;16.37;;
12663;SDS011;6396;58.490;15.528;2023-03-20T04:09:16;28.10;;;17.47;;
12663;SDS011;6396;58.490;15.528;2023-03-20T04:11:45;28.93;;;18.53;;
12663;SDS011;6396;58.490;15.528;2023-03-20T04:14:16;28.67;;;16.83;;
12663;SDS011;6396;58.490;15.528;2023-03-20T04:16:43;30.67;;;18.20;;
12663;SDS011;6396;58.490;15.528;2023-03-20T04:19:10;28.03;;;17.20;;
12663;SDS011;6396;58.490;15.528;2023-03-20T04:21:36;25.83;;;16.73;;
12663;SDS011;6396;58.490;15.528;2023-03-20T04:24:04;24.30;;;15.93;;
12663;SDS011;6396;58.490;15.528;2023-03-20T04:26:31;26.03;;;16.80;;
12663;SDS011;6396;58.490;15.528;2023-03-20T04:28:59;28.93;;;17.03;;
12663;SDS011;6396;58.490;15.528;2023-03-20T04:31:26;25.30;;;16.37;;
12663;SDS011;6396;58.490;15.528;2023-03-20T04:33:53;29.10;;;17.23;;
12663;SDS011;6396;58.490;15.528;2023-03-20T04:36:20;26.13;;;16.23;;
12663;SDS011;6396;58.490;15.528;2023-03-20T04:38:47;26.90;;;16.07;;
12663;SDS011;6396;58.490;15.528;2023-03-20T04:41:14;25.50;;;17.07;;
12663;SDS011;6396;58.490;15.528;2023-03-20T04:43:41;26.23;;;16.73;;
12663;SDS011;6396;58.490;15.528;2023-03-20T04:46:09;29.10;;;16.70;;
12663;SDS011;6396;58.490;15.528;2023-03-20T04:48:36;28.20;;;17.27;;
12663;SDS011;6396;58.490;15.528;2023-03-20T04:51:03;26.70;;;17.47;;
12663;SDS011;6396;58.490;15.528;2023-03-20T04:53:30;26.47;;;16.77;;
12663;SDS011;6396;58.490;15.528;2023-03-20T04:55:57;28.77;;;18.03;;
12663;SDS011;6396;58.490;15.528;2023-03-20T04:58:24;27.77;;;16.53;;
12663;SDS011;6396;58.490;15.528;2023-03-20T05:00:52;26.03;;;16.10;;
12663;SDS011;6396;58.490;15.528;2023-03-20T05:03:20;30.57;;;17.20;;
12663;SDS011;6396;58.490;15.528;2023-03-20T05:05:47;27.40;;;16.83;;
12663;SDS011;6396;58.490;15.528;2023-03-20T05:08:14;28.50;;;15.93;;
12663;SDS011;6396;58.490;15.528;2023-03-20T05:10:41;28.63;;;17.23;;
12663;SDS011;6396;58.490;15.528;2023-03-20T05:13:07;28.00;;;17.57;;
12663;SDS011;6396;58.490;15.528;2023-03-20T05:15:34;24.37;;;16.17;;
12663;SDS011;6396;58.490;15.528;2023-03-20T05:18:02;25.97;;;16.90;;
12663;SDS011;6396;58.490;15.528;2023-03-20T05:20:30;26.57;;;16.57;;
12663;SDS011;6396;58.490;15.528;2023-03-20T05:22:57;28.40;;;16.63;;
12663;SDS011;6396;58.490;15.528;2023-03-20T05:25:24;25.57;;;16.47;;
12663;SDS011;6396;58.490;15.528;2023-03-20T05:27:50;25.37;;;16.10;;
12663;SDS011;6396;58.490;15.528;2023-03-20T05:30:17;27.43;;;16.40;;
12663;SDS011;6396;58.490;15.528;2023-03-20T05:32:44;29.27;;;16.23;;
12663;SDS011;6396;58.490;15.528;2023-03-20T05:35:11;26.47;;;16.47;;
12663;SDS011;6396;58.490;15.528;2023-03-20T05:37:40;27.83;;;16.70;;
12663;SDS011;6396;58.490;15.528;2023-03-20T05:40:07;26.97;;;16.03;;
12663;SDS011;6396;58.490;15.528;2023-03-20T05:42:38;27.87;;;16.60;;
12663;SDS011;6396;58.490;15.528;2023-03-20T05:45:05;24.63;;;16.30;;
12663;SDS011;6396;58.490;15.528;2023-03-20T05:47:33;26.97;;;16.47;;
12663;SDS011;6396;58.490;15.528;2023-03-20T05:50:00;24.23;;;14.77;;
12663;SDS011;6396;58.490;15.528;2023-03-20T05:52:27;28.03;;;16.30;;
12663;SDS011;6396;58.490;15.528;2023-03-20T05:54:55;25.80;;;16.93;;
12663;SDS011;6396;58.490;15.528;2023-03-20T05:57:24;25.10;;;16.07;;
12663;SDS011;6396;58.490;15.528;2023-03-20T05:59:51;28.93;;;17.33;;
12663;SDS011;6396;58.490;15.528;2023-03-20T06:02:27;30.27;;;17.10;;
12663;SDS011;6396;58.490;15.528;2023-03-20T06:04:56;30.33;;;18.87;;
12663;SDS011;6396;58.490;15.528;2023-03-20T06:07:23;25.17;;;15.97;;
12663;SDS011;6396;58.490;15.528;2023-03-20T06:09:50;27.37;;;16.90;;
12663;SDS011;6396;58.490;15.528;2023-03-20T06:12:18;28.23;;;16.97;;
12663;SDS011;6396;58.490;15.528;2023-03-20T06:14:45;28.13;;;17.47;;
12663;SDS011;6396;58.490;15.528;2023-03-20T06:17:12;27.97;;;16.67;;
12663;SDS011;6396;58.490;15.528;2023-03-20T06:19:39;27.93;;;17.67;;
12663;SDS011;6396;58.490;15.528;2023-03-20T06:22:06;27.43;;;16.53;;
12663;SDS011;6396;58.490;15.528;2023-03-20T06:24:33;25.37;;;16.77;;
12663;SDS011;6396;58.490;15.528;2023-03-20T06:27:00;28.27;;;17.17;;
12663;SDS011;6396;58.490;15.528;2023-03-20T06:29:28;29.33;;;17.33;;
12663;SDS011;6396;58.490;15.528;2023-03-20T06:31:55;29.07;;;18.30;;
12663;SDS011;6396;58.490;15.528;2023-03-20T06:34:22;27.63;;;16.90;;
12663;SDS011;6396;58.490;15.528;2023-03-20T06:36:50;27.03;;;17.27;;
12663;SDS011;6396;58.490;15.528;2023-03-20T06:39:16;29.13;;;17.53;;
12663;SDS011;6396;58.490;15.528;2023-03-20T06:41:43;32.20;;;18.90;;
12663;SDS011;6396;58.490;15.528;2023-03-20T06:44:10;26.17;;;17.20;;
12663;SDS011;6396;58.490;15.528;2023-03-20T06:46:38;31.27;;;17.90;;
12663;SDS011;6396;58.490;15.528;2023-03-20T06:49:05;100.87;;;50.07;;
12663;SDS011;6396;58.490;15.528;2023-03-20T06:51:32;29.60;;;15.70;;
12663;SDS011;6396;58.490;15.528;2023-03-20T06:53:59;25.50;;;16.63;;
12663;SDS011;6396;58.490;15.528;2023-03-20T06:56:26;27.53;;;16.20;;
12663;SDS011;6396;58.490;15.528;2023-03-20T06:58:53;26.07;;;16.63;;
12663;SDS011;6396;58.490;15.528;2023-03-20T07:01:19;28.07;;;16.67;;
12663;SDS011;6396;58.490;15.528;2023-03-20T07:03:49;25.87;;;17.23;;
12663;SDS011;6396;58.490;15.528;2023-03-20T07:06:16;26.10;;;16.67;;
12663;SDS011;6396;58.490;15.528;2023-03-20T07:08:43;23.70;;;15.63;;
12663;SDS011;6396;58.490;15.528;2023-03-20T07:11:10;25.77;;;16.17;;
12663;SDS011;6396;58.490;15.528;2023-03-20T07:13:38;22.90;;;15.37;;
12663;SDS011;6396;58.490;15.528;2023-03-20T07:16:06;25.60;;;16.17;;
12663;SDS011;6396;58.490;15.528;2023-03-20T07:18:33;22.27;;;15.03;;
12663;SDS011;6396;58.490;15.528;2023-03-20T07:21:03;24.93;;;15.97;;
12663;SDS011;6396;58.490;15.528;2023-03-20T07:23:32;24.33;;;15.87;;
12663;SDS011;6396;58.490;15.528;2023-03-20T07:25:59;22.63;;;15.80;;
12663;SDS011;6396;58.490;15.528;2023-03-20T07:28:26;25.97;;;16.43;;
12663;SDS011;6396;58.490;15.528;2023-03-20T07:30:53;25.07;;;15.57;;
12663;SDS011;6396;58.490;15.528;2023-03-20T07:33:20;21.47;;;13.90;;
12663;SDS011;6396;58.490;15.528;2023-03-20T07:35:50;23.17;;;14.90;;
12663;SDS011;6396;58.490;15.528;2023-03-20T07:38:19;21.67;;;14.10;;
12663;SDS011;6396;58.490;15.528;2023-03-20T07:40:46;20.37;;;13.97;;
12663;SDS011;6396;58.490;15.528;2023-03-20T07:43:13;19.20;;;12.77;;
12663;SDS011;6396;58.490;15.528;2023-03-20T07:45:40;20.37;;;13.53;;
12663;SDS011;6396;58.490;15.528;2023-03-20T07:48:07;18.00;;;12.40;;
12663;SDS011;6396;58.490;15.528;2023-03-20T07:50:34;18.10;;;13.27;;
12663;SDS011;6396;58.490;15.528;2023-03-20T07:53:01;17.20;;;11.97;;
12663;SDS011;6396;58.490;15.528;2023-03-20T07:55:30;19.67;;;12.03;;
12663;SDS011;6396;58.490;15.528;2023-03-20T07:57:56;18.43;;;12.50;;
12663;SDS011;6396;58.490;15.528;2023-03-20T08:00:23;15.60;;;12.00;;
12663;SDS011;6396;58.490;15.528;2023-03-20T08:02:50;16.33;;;11.57;;
12663;SDS011;6396;58.490;15.528;2023-03-20T08:05:17;18.13;;;12.43;;
12663;SDS011;6396;58.490;15.528;2023-03-20T08:07:46;16.23;;;11.40;;
12663;SDS011;6396;58.490;15.528;2023-03-20T08:10:19;17.23;;;11.93;;
12663;SDS011;6396;58.490;15.528;2023-03-20T08:12:47;16.83;;;11.93;;
12663;SDS011;6396;58.490;15.528;2023-03-20T08:15:15;16.03;;;11.30;;
12663;SDS011;6396;58.490;15.528;2023-03-20T08:17:42;16.30;;;12.00;;
12663;SDS011;6396;58.490;15.528;2023-03-20T08:20:10;17.33;;;11.73;;
12663;SDS011;6396;58.490;15.528;2023-03-20T08:22:38;16.93;;;11.00;;
12663;SDS011;6396;58.490;15.528;2023-03-20T08:25:07;13.97;;;10.07;;
12663;SDS011;6396;58.490;15.528;2023-03-20T08:27:36;15.83;;;10.53;;
12663;SDS011;6396;58.490;15.528;2023-03-20T08:30:06;16.07;;;10.80;;
12663;SDS011;6396;58.490;15.528;2023-03-20T08:32:46;16.10;;;10.33;;
12663;SDS011;6396;58.490;15.528;2023-03-20T08:35:14;16.17;;;11.30;;
12663;SDS011;6396;58.490;15.528;2023-03-20T08:37:44;20.33;;;11.67;;
12663;SDS011;6396;58.490;15.528;2023-03-20T08:40:11;15.40;;;10.57;;
12663;SDS011;6396;58.490;15.528;2023-03-20T08:42:38;15.83;;;10.67;;
12663;SDS011;6396;58.490;15.528;2023-03-20T08:45:07;16.03;;;11.27;;
12663;SDS011;6396;58.490;15.528;2023-03-20T08:47:35;14.30;;;9.80;;
12663;SDS011;6396;58.490;15.528;2023-03-20T08:50:02;15.97;;;10.73;;
12663;SDS011;6396;58.490;15.528;2023-03-20T08:52:29;14.60;;;10.40;;
12663;SDS011;6396;58.490;15.528;2023-03-20T08:54:57;15.77;;;10.93;;
12663;SDS011;6396;58.490;15.528;2023-03-20T08:57:28;14.40;;;10.20;;
12663;SDS011;6396;58.490;15.528;2023-03-20T08:59:54;14.07;;;9.40;;
12663;SDS011;6396;58.490;15.528;2023-03-20T09:02:23;13.00;;;9.47;;
12663;SDS011;6396;58.490;15.528;2023-03-20T09:04:50;12.70;;;9.10;;
12663;SDS011;6396;58.490;15.528;2023-03-20T09:07:17;12.10;;;8.80;;
12663;SDS011;6396;58.490;15.528;2023-03-20T09:09:46;13.60;;;10.03;;
12663;SDS011;6396;58.490;15.528;2023-03-20T09:12:12;11.50;;;8.67;;
12663;SDS011;6396;58.490;15.528;2023-03-20T09:14:39;11.77;;;8.43;;
12663;SDS011;6396;58.490;15.528;2023-03-20T09:17:06;11.63;;;7.67;;
12663;SDS011;6396;58.490;15.528;2023-03-20T09:19:35;10.07;;;7.90;;
12663;SDS011;6396;58.490;15.528;2023-03-20T09:22:04;11.60;;;7.90;;
12663;SDS011;6396;58.490;15.528;2023-03-20T09:24:31;9.57;;;7.07;;
12663;SDS011;6396;58.490;15.528;2023-03-20T09:26:58;9.07;;;7.80;;
12663;SDS011;6396;58.490;15.528;2023-03-20T09:29:34;9.53;;;7.10;;
12663;SDS011;6396;58.490;15.528;2023-03-20T09:32:06;8.47;;;6.57;;
12663;SDS011;6396;58.490;15.528;2023-03-20T09:34:38;7.83;;;5.83;;
12663;SDS011;6396;58.490;15.528;2023-03-20T09:37:28;6.77;;;5.77;;
12663;SDS011;6396;58.490;15.528;2023-03-20T09:42:59;5.93;;;5.03;;
12663;SDS011;6396;58.490;15.528;2023-03-20T09:44:06;5.37;;;4.83;;
12663;SDS011;6396;58.490;15.528;2023-03-20T09:50:20;4.93;;;4.00;;
12663;SDS011;6396;58.490;15.528;2023-03-20T09:53:23;4.57;;;4.17;;
12663;SDS011;6396;58.490;15.528;2023-03-20T09:58:57;4.50;;;3.90;;
12663;SDS011;6396;58.490;15.528;2023-03-20T10:01:30;4.43;;;3.80;;
12663;SDS011;6396;58.490;15.528;2023-03-20T10:04:03;4.03;;;3.63;;
12663;SDS011;6396;58.490;15.528;2023-03-20T10:06:35;4.43;;;3.97;;
12663;SDS011;6396;58.490;15.528;2023-03-20T10:09:03;4.47;;;4.07;;
12663;SDS011;6396;58.490;15.528;2023-03-20T10:11:47;4.40;;;3.97;;
12663;SDS011;6396;58.490;15.528;2023-03-20T10:14:23;4.43;;;3.77;;
12663;SDS011;6396;58.490;15.528;2023-03-20T10:16:57;3.80;;;3.23;;
12663;SDS011;6396;58.490;15.528;2023-03-20T10:19:30;4.20;;;3.77;;
12663;SDS011;6396;58.490;15.528;2023-03-20T10:22:01;3.63;;;3.33;;
12663;SDS011;6396;58.490;15.528;2023-03-20T10:24:38;4.17;;;2.80;;
12663;SDS011;6396;58.490;15.528;2023-03-20T10:27:09;3.20;;;2.90;;
12663;SDS011;6396;58.490;15.528;2023-03-20T10:29:45;3.67;;;3.10;;
12663;SDS011;6396;58.490;15.528;2023-03-20T10:32:18;2.93;;;2.63;;
12663;SDS011;6396;58.490;15.528;2023-03-20T10:34:56;2.90;;;2.63;;
12663;SDS011;6396;58.490;15.528;2023-03-20T10:37:36;3.30;;;3.00;;
12663;SDS011;6396;58.490;15.528;2023-03-20T10:40:20;2.43;;;2.23;;
12663;SDS011;6396;58.490;15.528;2023-03-20T10:42:52;2.90;;;2.60;;
12663;SDS011;6396;58.490;15.528;2023-03-20T10:45:26;2.93;;;2.70;;
12663;SDS011;6396;58.490;15.528;2023-03-20T10:47:57;2.67;;;2.40;;
12663;SDS011;6396;58.490;15.528;2023-03-20T10:50:27;2.90;;;2.60;;
12663;SDS011;6396;58.490;15.528;2023-03-20T10:52:59;2.63;;;2.43;;
12663;SDS011;6396;58.490;15.528;2023-03-20T10:55:30;3.03;;;2.67;;
12663;SDS011;6396;58.490;15.528;2023-03-20T10:58:05;3.00;;;2.70;;
12663;SDS011;6396;58.490;15.528;2023-03-20T11:00:39;2.80;;;2.60;;
12663;SDS011;6396;58.490;15.528;2023-03-20T11:03:14;2.60;;;2.40;;
12663;SDS011;6396;58.490;15.528;2023-03-20T11:05:50;2.90;;;2.40;;
12663;SDS011;6396;58.490;15.528;2023-03-20T11:08:23;3.10;;;2.80;;
12663;SDS011;6396;58.490;15.528;2023-03-20T11:10:58;5.23;;;2.50;;
12663;SDS011;6396;58.490;15.528;2023-03-20T11:13:28;4.03;;;2.10;;
12663;SDS011;6396;58.490;15.528;2023-03-20T11:16:06;2.70;;;2.20;;
12663;SDS011;6396;58.490;15.528;2023-03-20T11:18:36;2.17;;;1.97;;
12663;SDS011;6396;58.490;15.528;2023-03-20T11:21:03;3.00;;;2.70;;
12663;SDS011;6396;58.490;15.528;2023-03-20T11:23:33;3.70;;;2.50;;
12663;SDS011;6396;58.490;15.528;2023-03-20T11:26:01;2.73;;;2.40;;
12663;SDS011;6396;58.490;15.528;2023-03-20T11:28:31;2.47;;;2.27;;
12663;SDS011;6396;58.490;15.528;2023-03-20T11:31:00;2.73;;;2.53;;
12663;SDS011;6396;58.490;15.528;2023-03-20T11:33:30;2.90;;;2.60;;
12663;SDS011;6396;58.490;15.528;2023-03-20T11:35:58;3.13;;;2.47;;
12663;SDS011;6396;58.490;15.528;2023-03-20T11:38:25;3.43;;;2.17;;
12663;SDS011;6396;58.490;15.528;2023-03-20T11:40:56;2.53;;;2.33;;
12663;SDS011;6396;58.490;15.528;2023-03-20T11:43:23;3.17;;;2.70;;
12663;SDS011;6396;58.490;15.528;2023-03-20T11:45:53;2.87;;;2.50;;
12663;SDS011;6396;58.490;15.528;2023-03-20T11:48:22;3.03;;;2.60;;
12663;SDS011;6396;58.490;15.528;2023-03-20T11:50:55;2.70;;;2.50;;
12663;SDS011;6396;58.490;15.528;2023-03-20T11:53:27;3.07;;;2.67;;
12663;SDS011;6396;58.490;15.528;2023-03-20T11:56:00;3.43;;;2.93;;
12663;SDS011;6396;58.490;15.528;2023-03-20T11:58:30;2.60;;;2.40;;
12663;SDS011;6396;58.490;15.528;2023-03-20T12:00:59;4.43;;;2.40;;
12663;SDS011;6396;58.490;15.528;2023-03-20T12:03:44;2.70;;;2.50;;
12663;SDS011;6396;58.490;15.528;2023-03-20T12:06:20;3.63;;;2.63;;
12663;SDS011;6396;58.490;15.528;2023-03-20T12:08:53;3.23;;;2.87;;
12663;SDS011;6396;58.490;15.528;2023-03-20T12:11:35;3.27;;;2.37;;
12663;SDS011;6396;58.490;15.528;2023-03-20T12:14:13;6.07;;;2.30;;
12663;SDS011;6396;58.490;15.528;2023-03-20T12:16:47;2.60;;;2.40;;
12663;SDS011;6396;58.490;15.528;2023-03-20T12:19:18;2.97;;;2.50;;
12663;SDS011;6396;58.490;15.528;2023-03-20T12:21:49;2.80;;;2.53;;
12663;SDS011;6396;58.490;15.528;2023-03-20T12:24:23;2.43;;;2.20;;
12663;SDS011;6396;58.490;15.528;2023-03-20T12:27:00;3.80;;;2.83;;
12663;SDS011;6396;58.490;15.528;2023-03-20T12:29:42;3.30;;;3.00;;
12663;SDS011;6396;58.490;15.528;2023-03-20T12:32:14;3.17;;;2.87;;
12663;SDS011;6396;58.490;15.528;2023-03-20T12:34:49;3.73;;;2.93;;
12663;SDS011;6396;58.490;15.528;2023-03-20T12:37:19;2.83;;;2.63;;
12663;SDS011;6396;58.490;15.528;2023-03-20T12:39:48;3.00;;;2.80;;
12663;SDS011;6396;58.490;15.528;2023-03-20T12:42:23;3.47;;;3.17;;
12663;SDS011;6396;58.490;15.528;2023-03-20T12:45:00;4.23;;;3.00;;
12663;SDS011;6396;58.490;15.528;2023-03-20T12:47:40;3.60;;;3.30;;
12663;SDS011;6396;58.490;15.528;2023-03-20T12:50:17;3.40;;;3.10;;
12663;SDS011;6396;58.490;15.528;2023-03-20T12:52:54;4.07;;;3.77;;
12663;SDS011;6396;58.490;15.528;2023-03-20T12:55:32;3.63;;;3.33;;
12663;SDS011;6396;58.490;15.528;2023-03-20T12:58:09;3.77;;;3.47;;
12663;SDS011;6396;58.490;15.528;2023-03-20T13:00:50;4.40;;;4.00;;
12663;SDS011;6396;58.490;15.528;2023-03-20T13:03:28;3.80;;;3.50;;
12663;SDS011;6396;58.490;15.528;2023-03-20T13:06:07;4.50;;;4.10;;
12663;SDS011;6396;58.490;15.528;2023-03-20T13:08:42;4.47;;;4.07;;
12663;SDS011;6396;58.490;15.528;2023-03-20T13:11:24;4.90;;;4.50;;
12663;SDS011;6396;58.490;15.528;2023-03-20T13:13:59;4.77;;;4.37;;
12663;SDS011;6396;58.490;15.528;2023-03-20T13:16:33;4.20;;;3.80;;
12663;SDS011;6396;58.490;15.528;2023-03-20T13:19:09;3.97;;;3.47;;
12663;SDS011;6396;58.490;15.528;2023-03-20T13:21:40;4.30;;;3.90;;
12663;SDS011;6396;58.490;15.528;2023-03-20T13:24:16;4.33;;;3.93;;
12663;SDS011;6396;58.490;15.528;2023-03-20T13:26:53;4.07;;;3.77;;
12663;SDS011;6396;58.490;15.528;2023-03-20T13:29:29;4.27;;;3.30;;
12663;SDS011;6396;58.490;15.528;2023-03-20T13:32:09;3.83;;;3.43;;
12663;SDS011;6396;58.490;15.528;2023-03-20T13:34:49;5.30;;;3.23;;
12663;SDS011;6396;58.490;15.528;2023-03-20T13:37:26;4.30;;;3.90;;
12663;SDS011;6396;58.490;15.528;2023-03-20T13:40:02;4.93;;;4.50;;
12663;SDS011;6396;58.490;15.528;2023-03-20T13:42:33;5.00;;;4.47;;
12663;SDS011;6396;58.490;15.528;2023-03-20T13:45:17;4.93;;;4.43;;
12663;SDS011;6396;58.490;15.528;2023-03-20T13:47:51;6.33;;;4.90;;
12663;SDS011;6396;58.490;15.528;2023-03-20T13:50:24;5.60;;;4.60;;
12663;SDS011;6396;58.490;15.528;2023-03-20T13:53:01;5.70;;;4.80;;
12663;SDS011;6396;58.490;15.528;2023-03-20T13:55:36;5.20;;;4.70;;
12663;SDS011;6396;58.490;15.528;2023-03-20T13:58:18;4.30;;;3.90;;
12663;SDS011;6396;58.490;15.528;2023-03-20T14:01:02;4.20;;;3.80;;
12663;SDS011;6396;58.490;15.528;2023-03-20T14:03:33;4.33;;;3.90;;
12663;SDS011;6396;58.490;15.528;2023-03-20T14:06:14;4.20;;;3.80;;
12663;SDS011;6396;58.490;15.528;2023-03-20T14:08:46;4.37;;;3.83;;
12663;SDS011;6396;58.490;15.528;2023-03-20T14:11:23;5.00;;;3.80;;
12663;SDS011;6396;58.490;15.528;2023-03-20T14:13:57;3.83;;;3.53;;
12663;SDS011;6396;58.490;15.528;2023-03-20T14:16:30;5.00;;;3.70;;
12663;SDS011;6396;58.490;15.528;2023-03-20T14:19:03;4.90;;;3.20;;
12663;SDS011;6396;58.490;15.528;2023-03-20T14:21:33;4.07;;;3.10;;
12663;SDS011;6396;58.490;15.528;2023-03-20T14:24:01;3.97;;;2.63;;
12663;SDS011;6396;58.490;15.528;2023-03-20T14:26:30;3.37;;;2.27;;
12663;SDS011;6396;58.490;15.528;2023-03-20T14:29:18;4.00;;;2.83;;
12663;SDS011;6396;58.490;15.528;2023-03-20T14:31:48;2.40;;;1.90;;
12663;SDS011;6396;58.490;15.528;2023-03-20T14:34:16;2.67;;;2.00;;
12663;SDS011;6396;58.490;15.528;2023-03-20T14:36:55;1.83;;;1.73;;
12663;SDS011;6396;58.490;15.528;2023-03-20T14:39:25;1.80;;;1.50;;
12663;SDS011;6396;58.490;15.528;2023-03-20T14:42:04;2.27;;;1.87;;
12663;SDS011;6396;58.490;15.528;2023-03-20T14:44:48;1.57;;;1.47;;
12663;SDS011;6396;58.490;15.528;2023-03-20T14:47:28;3.73;;;1.93;;
12663;SDS011;6396;58.490;15.528;2023-03-20T14:50:07;2.60;;;1.83;;
12663;SDS011;6396;58.490;15.528;2023-03-20T14:52:42;2.07;;;1.80;;
12663;SDS011;6396;58.490;15.528;2023-03-20T14:55:29;2.50;;;2.13;;
12663;SDS011;6396;58.490;15.528;2023-03-20T14:58:01;3.37;;;1.60;;
12663;SDS011;6396;58.490;15.528;2023-03-20T15:00:32;2.00;;;1.80;;
12663;SDS011;6396;58.490;15.528;2023-03-20T15:03:05;3.20;;;2.17;;
12663;SDS011;6396;58.490;15.528;2023-03-20T15:05:35;2.77;;;1.90;;
12663;SDS011;6396;58.490;15.528;2023-03-20T15:08:03;3.53;;;1.50;;
12663;SDS011;6396;58.490;15.528;2023-03-20T15:10:34;1.80;;;1.40;;
12663;SDS011;6396;58.490;15.528;2023-03-20T15:13:03;1.73;;;1.60;;
12663;SDS011;6396;58.490;15.528;2023-03-20T15:15:32;2.83;;;1.63;;
12663;SDS011;6396;58.490;15.528;2023-03-20T15:18:03;1.63;;;1.50;;
12663;SDS011;6396;58.490;15.528;2023-03-20T15:20:34;2.57;;;1.70;;
12663;SDS011;6396;58.490;15.528;2023-03-20T15:23:01;2.57;;;1.80;;
12663;SDS011;6396;58.490;15.528;2023-03-20T15:25:30;1.80;;;1.70;;
12663;SDS011;6396;58.490;15.528;2023-03-20T15:27:58;2.13;;;1.90;;
12663;SDS011;6396;58.490;15.528;2023-03-20T15:30:25;2.47;;;1.90;;